Time;durP1;ratioP1;P1;durP2;ratioP2;P2;SDS_P1;SDS_P2;PMS_P1;PMS_P2;Temp;Humidity;BMP_temperature;BMP_pressure;BME280_temperature;BME280_humidity;BME280_pressure;Samples;Min_cycle;Max_cycle;Signal;HPM_P1;HPM_P2
2022/07/30 00:00:40;;;;;;;;;;;;;;;26.11;47.08;100050.34;2091340;28;20231;-47
2022/07/30 00:01:41;;;;;;;;;;;;;;;26.11;47.10;100043.97;2086385;28;20301;-51
2022/07/30 00:02:41;;;;;;;;;;;;;;;26.11;47.24;100042.06;2088923;28;20738;-47
2022/07/30 00:03:41;;;;;;;;;;;;;;;26.11;47.31;100041.22;2088129;28;19916;-48
2022/07/30 00:04:42;;;;;;;;;;;;;;;26.11;47.24;100038.44;2091758;28;19916;-48
2022/07/30 00:05:42;;;;;;;;;;;;;;;26.10;47.25;100040.34;2092826;28;20038;-50
2022/07/30 00:06:43;;;;;;;;;;;;;;;26.11;47.03;100043.97;2093032;28;19916;-48
2022/07/30 00:07:43;;;;;;;;;;;;;;;26.11;47.10;100041.22;2090787;28;19918;-48
2022/07/30 00:08:43;;;;;;;;;;;;;;;26.12;47.16;100037.41;2092682;28;19915;-48
2022/07/30 00:09:43;;;;;;;;;;;;;;;26.12;47.09;100043.78;2091084;28;19922;-47
2022/07/30 00:10:44;;;;;;;;;;;;;;;26.11;47.11;100036.53;2092873;28;19916;-48
2022/07/30 00:11:44;;;;;;;;;;;;;;;26.11;47.19;100035.69;2091702;28;19941;-48
2022/07/30 00:12:44;;;;;;;;;;;;;;;26.11;47.18;100038.44;2091970;28;19916;-50
2022/07/30 00:13:44;;;;;;;;;;;;;;;26.12;47.00;100037.41;2092706;28;20275;-46
2022/07/30 00:14:45;;;;;;;;;;;;;;;26.12;46.98;100042.94;2089683;28;19989;-47
2022/07/30 00:15:45;;;;;;;;;;;;;;;26.11;47.06;100038.44;2089953;28;19931;-47
2022/07/30 00:16:45;;;;;;;;;;;;;;;26.09;47.16;100033.97;2086248;28;19936;-47
2022/07/30 00:17:46;;;;;;;;;;;;;;;26.11;46.84;100041.22;2087967;28;19915;-47
2022/07/30 00:18:46;;;;;;;;;;;;;;;26.09;47.10;100036.75;2085786;28;20402;-47
2022/07/30 00:19:46;;;;;;;;;;;;;;;26.11;46.85;100041.22;2094100;28;20204;-46
2022/07/30 00:20:46;;;;;;;;;;;;;;;26.12;47.12;100037.41;2091614;28;19912;-47
2022/07/30 00:21:47;;;;;;;;;;;;;;;26.10;47.11;100034.84;2086585;28;19920;-50
2022/07/30 00:22:47;;;;;;;;;;;;;;;26.09;47.14;100042.28;2089665;28;19940;-46
2022/07/30 00:23:47;;;;;;;;;;;;;;;26.09;46.92;100039.50;2089640;28;20389;-46
2022/07/30 00:24:48;;;;;;;;;;;;;;;26.10;47.16;100040.34;2093117;28;19916;-50
2022/07/30 00:25:48;;;;;;;;;;;;;;;26.11;46.91;100038.44;2093559;28;20237;-46
2022/07/30 00:26:48;;;;;;;;;;;;;;;26.09;46.97;100039.50;2091999;28;19927;-49
2022/07/30 00:27:48;;;;;;;;;;;;;;;26.10;47.24;100040.34;2094578;28;19908;-45
2022/07/30 00:28:49;;;;;;;;;;;;;;;26.11;47.20;100041.22;2092815;28;19956;-46
2022/07/30 00:29:49;;;;;;;;;;;;;;;26.09;47.20;100033.97;2088229;28;19978;-47
2022/07/30 00:30:49;;;;;;;;;;;;;;;26.08;47.24;100037.78;2091694;28;19908;-46
2022/07/30 00:31:50;;;;;;;;;;;;;;;26.08;47.06;100037.78;2092241;28;19927;-47
2022/07/30 00:32:50;;;;;;;;;;;;;;;26.08;46.99;100037.78;2095590;28;20241;-46
2022/07/30 00:33:50;;;;;;;;;;;;;;;26.08;47.03;100034.16;2094604;28;19912;-47
2022/07/30 00:34:51;;;;;;;;;;;;;;;26.07;46.95;100036.09;2093597;28;19947;-46
2022/07/30 00:35:51;;;;;;;;;;;;;;;26.07;47.29;100038.84;2092727;28;20025;-47
2022/07/30 00:36:51;;;;;;;;;;;;;;;26.08;47.07;100037.78;2093911;28;19916;-48
2022/07/30 00:37:52;;;;;;;;;;;;;;;26.08;47.18;100037.78;2096007;28;19915;-48
2022/07/30 00:38:52;;;;;;;;;;;;;;;26.08;47.17;100043.31;2099242;28;20007;-48
2022/07/30 00:39:52;;;;;;;;;;;;;;;26.07;47.39;100033.31;2093423;28;20270;-50
2022/07/30 00:40:53;;;;;;;;;;;;;;;26.07;47.40;100036.09;2090173;28;19923;-48
2022/07/30 00:42:00;;;;;;;;;;;;;;;26.07;47.14;100033.31;2094866;28;19920;-47
2022/07/30 00:43:01;;;;;;;;;;;;;;;26.07;47.18;100036.09;2094111;28;20562;-48
2022/07/30 00:44:01;;;;;;;;;;;;;;;26.06;47.19;100034.34;2091955;28;19915;-46
2022/07/30 00:45:01;;;;;;;;;;;;;;;26.07;47.14;100025.03;2089267;28;20887;-47
2022/07/30 00:46:01;;;;;;;;;;;;;;;26.07;47.38;100035.22;2088459;28;19956;-46
2022/07/30 00:47:02;;;;;;;;;;;;;;;26.07;47.39;100033.31;2094292;28;19916;-46
2022/07/30 00:48:02;;;;;;;;;;;;;;;26.08;47.36;100034.16;2092148;28;20131;-48
2022/07/30 00:49:02;;;;;;;;;;;;;;;26.08;47.08;100035.00;2094489;28;19912;-47
2022/07/30 00:50:04;;;;;;;;;;;;;;;26.07;47.35;100030.56;2094744;28;19912;-50
2022/07/30 00:51:04;;;;;;;;;;;;;;;26.07;47.21;100025.03;2095023;28;20452;-48
2022/07/30 00:52:04;;;;;;;;;;;;;;;26.07;47.03;100022.28;2091608;28;19919;-48
2022/07/30 00:53:05;;;;;;;;;;;;;;;26.07;46.96;100024.19;2093207;28;19923;-46
2022/07/30 00:54:06;;;;;;;;;;;;;;;26.07;47.01;100025.03;2094018;28;19938;-47
2022/07/30 00:55:11;;;;;;;;;;;;;;;26.08;47.05;100020.34;2094719;28;19916;-47
2022/07/30 00:56:11;;;;;;;;;;;;;;;26.07;47.28;100022.28;2093198;28;20183;-47
2022/07/30 00:57:11;;;;;;;;;;;;;;;26.07;47.21;100025.03;2093108;28;19973;-46
2022/07/30 00:58:11;;;;;;;;;;;;;;;26.07;46.97;100019.50;2093887;28;20344;-48
2022/07/30 00:59:12;;;;;;;;;;;;;;;26.07;47.07;100019.50;2090825;28;20011;-50
2022/07/30 01:00:13;;;;;;;;;;;;;;;26.07;47.21;100025.03;2095250;28;20376;-47
2022/07/30 01:01:13;;;;;;;;;;;;;;;26.08;47.18;100021.22;2093000;28;19920;-46
2022/07/30 01:02:14;;;;;;;;;;;;;;;26.08;46.93;100018.44;2094468;28;20211;-48
2022/07/30 01:03:14;;;;;;;;;;;;;;;26.07;47.21;100025.03;2092476;28;19908;-48
2022/07/30 01:04:15;;;;;;;;;;;;;;;26.08;47.15;100020.34;2092169;28;20168;-46
2022/07/30 01:05:15;;;;;;;;;;;;;;;26.08;47.01;100023.13;2094312;28;19962;-47
2022/07/30 01:06:15;;;;;;;;;;;;;;;26.08;46.97;100025.88;2087367;28;20319;-47
2022/07/30 01:07:16;;;;;;;;;;;;;;;26.07;47.06;100013.97;2092524;28;19948;-50
2022/07/30 01:08:16;;;;;;;;;;;;;;;26.08;46.92;100026.72;2087647;28;20593;-46
2022/07/30 01:09:16;;;;;;;;;;;;;;;26.07;47.28;100019.50;2091954;28;20372;-48
2022/07/30 01:10:17;;;;;;;;;;;;;;;26.08;47.06;100021.22;2091011;28;20035;-48
2022/07/30 01:11:17;;;;;;;;;;;;;;;26.08;47.12;100021.22;2094356;28;19920;-47
2022/07/30 01:12:19;;;;;;;;;;;;;;;26.07;47.20;100016.75;2094948;28;20331;-46
2022/07/30 01:13:19;;;;;;;;;;;;;;;26.07;47.29;100018.66;2093057;28;20292;-51
2022/07/30 01:14:20;;;;;;;;;;;;;;;26.08;47.25;100021.22;2090993;28;19994;-46
2022/07/30 01:15:21;;;;;;;;;;;;;;;26.06;47.23;100012.25;2095018;28;20441;-50
2022/07/30 01:16:21;;;;;;;;;;;;;;;26.06;47.07;100012.25;2091260;28;19926;-48
2022/07/30 01:17:21;;;;;;;;;;;;;;;26.06;47.06;100016.94;2086974;28;20342;-47
2022/07/30 01:18:23;;;;;;;;;;;;;;;26.07;47.09;100018.66;2093953;28;19916;-47
2022/07/30 01:21:06;;;;;;;;;;;;;;;26.06;47.21;100014.16;2092953;28;19916;-51
2022/07/30 01:22:14;;;;;;;;;;;;;;;26.05;47.21;100018.84;2087413;28;19966;-46
2022/07/30 01:23:24;;;;;;;;;;;;;;;26.06;47.13;100015.03;2089912;28;19915;-46
2022/07/30 01:24:35;;;;;;;;;;;;;;;26.05;47.58;100018.84;2093931;28;19986;-46
2022/07/30 01:25:38;;;;;;;;;;;;;;;26.06;47.50;100016.94;2090709;28;20340;-49
2022/07/30 01:26:39;;;;;;;;;;;;;;;26.04;47.48;100016.28;2086819;28;19916;-49
2022/07/30 01:27:41;;;;;;;;;;;;;;;26.04;47.18;100028.19;2093671;28;20730;-49
2022/07/30 01:28:45;;;;;;;;;;;;;;;26.05;47.19;100015.25;2091261;28;20204;-50
2022/07/30 01:29:46;;;;;;;;;;;;;;;26.04;47.50;100017.16;2085218;28;20026;-47
2022/07/30 01:30:47;;;;;;;;;;;;;;;26.05;47.20;100021.59;2092264;28;19908;-47
2022/07/30 01:31:48;;;;;;;;;;;;;;;26.05;47.49;100024.38;2090560;28;19923;-48
2022/07/30 01:32:50;;;;;;;;;;;;;;;26.05;47.25;100024.38;2094673;28;19927;-47
2022/07/30 01:33:50;;;;;;;;;;;;;;;26.05;47.32;100021.59;2092931;28;19916;-48
2022/07/30 01:34:51;;;;;;;;;;;;;;;26.05;47.17;100024.38;2094904;28;19916;-48
2022/07/30 01:35:52;;;;;;;;;;;;;;;26.05;47.07;100016.09;2091538;28;20335;-48
2022/07/30 01:36:54;;;;;;;;;;;;;;;26.06;47.31;100022.47;2092291;28;20066;-47
2022/07/30 01:37:55;;;;;;;;;;;;;;;26.06;47.31;100016.94;2093263;28;19916;-48
2022/07/30 01:38:57;;;;;;;;;;;;;;;26.05;47.38;100013.31;2090461;28;19916;-48
2022/07/30 01:39:57;;;;;;;;;;;;;;;26.05;47.14;100016.09;2092291;28;19992;-51
2022/07/30 01:40:58;;;;;;;;;;;;;;;26.05;47.38;100018.84;2093553;28;20366;-47
2022/07/30 01:41:59;;;;;;;;;;;;;;;26.07;47.12;100024.19;2089778;28;19937;-50
2022/07/30 01:43:01;;;;;;;;;;;;;;;26.05;47.08;100018.84;2092021;28;19939;-47
2022/07/30 01:44:03;;;;;;;;;;;;;;;26.05;47.22;100021.59;2092631;28;19916;-48
2022/07/30 01:45:05;;;;;;;;;;;;;;;26.05;47.05;100016.09;2090862;28;19973;-48
2022/07/30 01:46:06;;;;;;;;;;;;;;;26.06;47.21;100022.47;2089422;28;19958;-48
2022/07/30 01:47:08;;;;;;;;;;;;;;;26.05;47.07;100018.84;2088855;28;19920;-47
2022/07/30 01:48:09;;;;;;;;;;;;;;;26.05;47.29;100018.84;2092740;28;19916;-48
2022/07/30 01:49:10;;;;;;;;;;;;;;;26.05;47.08;100013.31;2091242;28;19916;-47
2022/07/30 01:50:13;;;;;;;;;;;;;;;26.05;47.35;100021.59;2086945;28;19916;-48
2022/07/30 01:51:15;;;;;;;;;;;;;;;26.06;47.38;100005.88;2088923;28;20099;-50
2022/07/30 01:52:16;;;;;;;;;;;;;;;26.05;47.14;100021.59;2088660;28;19916;-48
2022/07/30 01:53:19;;;;;;;;;;;;;;;26.06;47.26;100006.72;2092201;28;19977;-47
2022/07/30 01:54:20;;;;;;;;;;;;;;;26.06;47.10;100011.41;2090954;28;19927;-49
2022/07/30 01:55:24;;;;;;;;;;;;;;;26.05;47.16;100016.09;2093843;28;19916;-47
2022/07/30 01:56:25;;;;;;;;;;;;;;;26.05;47.22;99999.50;2091367;28;19977;-49
2022/07/30 01:57:25;;;;;;;;;;;;;;;26.04;47.12;100003.34;2089140;28;20788;-48
2022/07/30 01:58:26;;;;;;;;;;;;;;;26.05;47.30;100002.28;2093095;28;20252;-47
2022/07/30 01:59:28;;;;;;;;;;;;;;;26.04;47.23;100000.56;2092648;28;19921;-50
2022/07/30 02:00:29;;;;;;;;;;;;;;;26.05;47.25;100004.19;2083330;28;19916;-49
2022/07/30 02:01:30;;;;;;;;;;;;;;;26.04;47.21;100003.34;2092277;28;19977;-49
2022/07/30 02:02:30;;;;;;;;;;;;;;;26.03;47.54;99996.09;2095329;28;19977;-48
2022/07/30 02:03:30;;;;;;;;;;;;;;;26.04;47.24;99994.19;2095464;28;19916;-50
2022/07/30 02:04:31;;;;;;;;;;;;;;;26.03;47.33;99996.09;2092486;28;19942;-50
2022/07/30 02:05:33;;;;;;;;;;;;;;;26.03;47.38;99996.09;2088815;28;20065;-47
2022/07/30 02:06:36;;;;;;;;;;;;;;;26.03;47.37;99992.47;2092479;28;19916;-51
2022/07/30 02:07:51;;;;;;;;;;;;;;;26.04;47.39;100003.34;2086994;28;19912;-48
2022/07/30 02:08:54;;;;;;;;;;;;;;;26.02;47.28;99994.41;2091893;28;19963;-48
2022/07/30 02:10:01;;;;;;;;;;;;;;;26.02;47.27;99993.53;2094331;28;19925;-49
2022/07/30 02:12:45;;;;;;;;;;;;;;;26.01;47.34;99995.44;2087987;28;20014;-49
2022/07/30 02:13:51;;;;;;;;;;;;;;;26.02;47.55;99994.41;2090694;28;19920;-50
2022/07/30 02:15:00;;;;;;;;;;;;;;;26.02;47.60;99999.91;2087590;28;19916;-51
2022/07/30 02:16:13;;;;;;;;;;;;;;;26.02;47.51;99997.16;2085258;28;19931;-49
2022/07/30 02:17:17;;;;;;;;;;;;;;;26.02;47.39;99988.88;2081253;28;20270;-49
2022/07/30 02:18:31;;;;;;;;;;;;;;;26.02;47.48;99991.63;2092229;28;19955;-51
2022/07/30 02:19:38;;;;;;;;;;;;;;;26.03;47.50;99993.31;2085261;28;20231;-50
2022/07/30 02:20:43;;;;;;;;;;;;;;;26.03;47.48;99995.25;2089615;28;19917;-47
2022/07/30 02:21:45;;;;;;;;;;;;;;;26.03;47.36;99993.31;2087476;28;20376;-47
2022/07/30 02:22:47;;;;;;;;;;;;;;;26.02;47.28;99988.88;2087914;28;19916;-47
2022/07/30 02:23:49;;;;;;;;;;;;;;;26.02;47.53;99994.41;2090910;28;19927;-50
2022/07/30 02:24:50;;;;;;;;;;;;;;;26.02;47.36;99994.41;2092302;28;19942;-48
2022/07/30 02:25:50;;;;;;;;;;;;;;;26.03;47.48;99989.72;2092071;28;19916;-47
2022/07/30 02:26:55;;;;;;;;;;;;;;;26.03;47.51;99996.09;2088712;28;19917;-48
2022/07/30 02:27:57;;;;;;;;;;;;;;;26.03;47.40;99992.47;2090621;28;20163;-48
2022/07/30 02:28:59;;;;;;;;;;;;;;;26.03;47.26;99989.72;2089644;28;19916;-50
2022/07/30 02:30:01;;;;;;;;;;;;;;;26.02;47.26;99988.88;2092864;28;20357;-51
2022/07/30 02:31:02;;;;;;;;;;;;;;;26.03;47.51;99996.09;2092428;28;19916;-47
2022/07/30 02:32:05;;;;;;;;;;;;;;;26.03;47.44;99998.84;2092551;28;19923;-47
2022/07/30 02:33:09;;;;;;;;;;;;;;;26.02;47.54;99994.41;2091910;28;19909;-47
2022/07/30 02:34:11;;;;;;;;;;;;;;;26.02;47.34;99994.41;2092496;28;19969;-47
2022/07/30 02:35:17;;;;;;;;;;;;;;;26.03;47.15;99995.25;2094551;28;19923;-49
2022/07/30 02:36:18;;;;;;;;;;;;;;;26.03;47.14;99996.09;2090026;28;20488;-48
2022/07/30 02:37:22;;;;;;;;;;;;;;;26.02;47.33;99999.91;2091696;28;19927;-47
2022/07/30 02:38:24;;;;;;;;;;;;;;;26.03;47.37;99995.25;2094293;28;20450;-47
2022/07/30 02:39:25;;;;;;;;;;;;;;;26.03;47.37;99996.09;2092231;28;20291;-47
2022/07/30 02:40:27;;;;;;;;;;;;;;;26.03;47.28;100001.63;2093478;28;19908;-50
2022/07/30 02:41:28;;;;;;;;;;;;;;;26.02;47.23;99997.16;2091009;28;19916;-47
2022/07/30 02:42:30;;;;;;;;;;;;;;;26.02;47.54;99997.16;2095071;28;19944;-47
2022/07/30 02:43:31;;;;;;;;;;;;;;;26.03;47.63;99995.25;2094313;28;19959;-48
2022/07/30 02:44:33;;;;;;;;;;;;;;;26.02;47.60;99993.53;2091742;28;19920;-48
2022/07/30 02:45:34;;;;;;;;;;;;;;;26.01;47.59;99998.19;2093016;28;19922;-50
2022/07/30 02:46:36;;;;;;;;;;;;;;;26.01;47.41;99992.66;2093638;28;20195;-47
2022/07/30 02:47:37;;;;;;;;;;;;;;;26.02;47.36;99993.53;2094564;28;19923;-47
2022/07/30 02:48:39;;;;;;;;;;;;;;;26.00;47.49;99990.97;2091413;28;19912;-47
2022/07/30 02:49:40;;;;;;;;;;;;;;;26.01;47.47;99992.66;2091597;28;20348;-47
2022/07/30 02:50:41;;;;;;;;;;;;;;;26.01;47.67;99998.19;2090902;28;19951;-46
2022/07/30 02:51:42;;;;;;;;;;;;;;;26.01;47.41;99991.81;2094639;28;19923;-47
2022/07/30 02:52:44;;;;;;;;;;;;;;;26.00;47.70;99990.97;2091701;28;19920;-48
2022/07/30 02:53:45;;;;;;;;;;;;;;;26.01;47.71;99997.34;2092859;28;19923;-47
2022/07/30 02:54:47;;;;;;;;;;;;;;;26.00;47.53;99996.50;2091409;28;20044;-49
2022/07/30 02:55:47;;;;;;;;;;;;;;;26.00;47.52;99990.97;2091831;28;20317;-47
2022/07/30 02:56:49;;;;;;;;;;;;;;;25.99;47.73;99994.78;2093160;28;19916;-47
2022/07/30 02:57:51;;;;;;;;;;;;;;;26.00;47.72;100002.03;2093133;28;19989;-47
2022/07/30 02:58:52;;;;;;;;;;;;;;;25.98;47.81;99990.31;2092266;28;19916;-47
2022/07/30 02:59:53;;;;;;;;;;;;;;;26.00;47.70;99990.13;2093167;28;19923;-47
2022/07/30 03:00:54;;;;;;;;;;;;;;;25.99;47.85;99989.28;2092755;28;19916;-47
2022/07/30 03:01:55;;;;;;;;;;;;;;;25.99;47.53;99994.78;2085938;28;20323;-49
2022/07/30 03:02:56;;;;;;;;;;;;;;;25.99;47.47;100005.84;2090943;28;19916;-47
2022/07/30 03:03:57;;;;;;;;;;;;;;;26.00;47.77;100002.03;2093163;28;20169;-47
2022/07/30 03:04:59;;;;;;;;;;;;;;;25.99;47.76;99994.78;2091557;28;20206;-49
2022/07/30 03:06:01;;;;;;;;;;;;;;;26.01;47.76;99991.81;2094884;28;20851;-48
2022/07/30 03:07:01;;;;;;;;;;;;;;;25.99;47.79;100003.09;2093186;28;19915;-49
2022/07/30 03:08:02;;;;;;;;;;;;;;;26.00;47.46;100002.03;2092338;28;19916;-48
2022/07/30 03:09:03;;;;;;;;;;;;;;;26.00;47.43;100007.53;2092152;28;19915;-47
2022/07/30 03:10:04;;;;;;;;;;;;;;;26.00;47.70;100004.78;2093121;28;20596;-48
2022/07/30 03:11:04;;;;;;;;;;;;;;;26.00;47.61;99992.88;2089050;28;20404;-47
2022/07/30 03:12:05;;;;;;;;;;;;;;;26.00;47.65;99996.50;2092437;28;19916;-49
2022/07/30 03:13:06;;;;;;;;;;;;;;;26.00;47.37;99995.66;2091403;28;19916;-48
2022/07/30 03:14:07;;;;;;;;;;;;;;;26.01;47.41;100003.72;2093318;28;19952;-48
2022/07/30 03:15:08;;;;;;;;;;;;;;;26.01;47.39;100002.88;2092457;28;19961;-47
2022/07/30 03:16:09;;;;;;;;;;;;;;;26.00;47.60;99996.50;2092579;28;19919;-48
2022/07/30 03:17:11;;;;;;;;;;;;;;;26.01;47.62;100006.47;2093875;28;19916;-47
2022/07/30 03:18:13;;;;;;;;;;;;;;;26.01;47.55;99997.34;2091505;28;19977;-48
2022/07/30 03:19:15;;;;;;;;;;;;;;;26.01;47.67;100005.63;2092426;28;19943;-47
2022/07/30 03:20:17;;;;;;;;;;;;;;;26.00;47.53;100010.31;2086348;28;20224;-47
2022/07/30 03:21:19;;;;;;;;;;;;;;;26.00;47.62;100004.78;2090075;28;19966;-47
2022/07/30 03:22:20;;;;;;;;;;;;;;;26.00;47.38;100002.03;2083738;28;20016;-48
2022/07/30 03:23:21;;;;;;;;;;;;;;;26.00;47.38;100002.03;2092206;28;19949;-48
2022/07/30 03:24:23;;;;;;;;;;;;;;;25.99;47.64;100005.84;2092328;28;19916;-48
2022/07/30 03:25:25;;;;;;;;;;;;;;;26.00;47.69;100007.53;2092015;28;19924;-47
2022/07/30 03:26:26;;;;;;;;;;;;;;;26.00;47.39;100002.03;2091989;28;19916;-48
2022/07/30 03:27:27;;;;;;;;;;;;;;;26.00;47.61;100007.53;2091055;28;19948;-49
2022/07/30 03:28:30;;;;;;;;;;;;;;;25.99;47.80;100003.09;2092501;28;19955;-47
2022/07/30 03:29:31;;;;;;;;;;;;;;;25.99;47.63;100004.97;2087455;28;19920;-50
2022/07/30 03:30:32;;;;;;;;;;;;;;;25.98;47.58;100006.88;2093427;28;19916;-48
2022/07/30 03:31:33;;;;;;;;;;;;;;;25.99;47.85;100000.31;2091524;28;20326;-47
2022/07/30 03:32:35;;;;;;;;;;;;;;;25.98;47.63;100004.13;2090423;28;19916;-54
2022/07/30 03:33:36;;;;;;;;;;;;;;;25.98;47.87;100004.13;2089350;28;19950;-47
2022/07/30 03:34:37;;;;;;;;;;;;;;;25.99;47.94;100013.25;2087192;28;19928;-51
2022/07/30 03:35:38;;;;;;;;;;;;;;;25.98;47.85;100011.56;2091809;28;19955;-48
2022/07/30 03:36:40;;;;;;;;;;;;;;;25.98;47.98;100009.63;2088277;28;19923;-47
2022/07/30 03:37:41;;;;;;;;;;;;;;;25.98;47.96;100008.78;2089035;28;19916;-47
2022/07/30 03:38:42;;;;;;;;;;;;;;;25.97;47.72;100013.47;2090923;28;19916;-47
2022/07/30 03:39:43;;;;;;;;;;;;;;;25.96;47.96;100011.75;2092691;28;20344;-47
2022/07/30 03:40:44;;;;;;;;;;;;;;;25.97;48.03;100007.94;2090415;28;19927;-47
2022/07/30 03:41:45;;;;;;;;;;;;;;;25.96;47.84;100011.75;2089553;28;20014;-47
2022/07/30 03:42:46;;;;;;;;;;;;;;;25.97;48.00;100013.47;2092557;28;20489;-49
2022/07/30 03:43:47;;;;;;;;;;;;;;;25.96;47.77;100006.22;2093401;28;19920;-51
2022/07/30 03:44:48;;;;;;;;;;;;;;;25.96;47.75;100017.25;2093112;28;19916;-47
2022/07/30 03:45:49;;;;;;;;;;;;;;;25.96;47.80;100000.69;2087199;28;20013;-47
2022/07/30 03:46:51;;;;;;;;;;;;;;;25.96;47.72;100006.22;2091338;28;20405;-47
2022/07/30 03:47:52;;;;;;;;;;;;;;;25.97;47.86;100001.53;2091725;28;19924;-48
2022/07/30 03:48:53;;;;;;;;;;;;;;;25.97;47.94;100007.94;2093410;28;19944;-49
2022/07/30 03:49:53;;;;;;;;;;;;;;;25.97;47.76;100012.59;2093830;28;20350;-49
2022/07/30 03:50:54;;;;;;;;;;;;;;;25.97;47.84;100015.34;2087372;28;19912;-48
2022/07/30 03:51:55;;;;;;;;;;;;;;;25.96;47.82;100011.75;2090218;28;20074;-48
2022/07/30 03:52:56;;;;;;;;;;;;;;;25.97;47.71;100007.94;2087040;28;19908;-49
2022/07/30 03:53:57;;;;;;;;;;;;;;;25.97;47.89;100013.47;2092963;28;19956;-47
2022/07/30 03:54:57;;;;;;;;;;;;;;;25.97;47.85;100013.47;2095725;28;20649;-47
2022/07/30 03:55:58;;;;;;;;;;;;;;;25.97;47.58;100019.00;2090173;28;19928;-46
2022/07/30 03:56:59;;;;;;;;;;;;;;;25.97;47.61;100016.22;2089163;28;20243;-47
2022/07/30 03:58:00;;;;;;;;;;;;;;;25.97;47.59;100019.00;2094857;28;19915;-47
2022/07/30 03:59:01;;;;;;;;;;;;;;;25.98;47.63;100015.16;2090610;28;20303;-47
2022/07/30 04:00:12;;;;;;;;;;;;;;;25.98;47.83;100020.69;2091641;28;20245;-47
2022/07/30 04:01:13;;;;;;;;;;;;;;;25.97;47.74;100021.75;2094584;28;20302;-47
2022/07/30 04:02:13;;;;;;;;;;;;;;;25.97;47.80;100019.00;2090170;28;20011;-48
2022/07/30 04:03:22;;;;;;;;;;;;;;;25.98;47.69;100019.84;2086929;28;20026;-51
2022/07/30 04:04:23;;;;;;;;;;;;;;;25.98;47.73;100022.59;2087774;28;19917;-47
2022/07/30 04:05:23;;;;;;;;;;;;;;;25.96;47.58;100017.25;2088014;28;19916;-46
2022/07/30 04:06:23;;;;;;;;;;;;;;;25.98;47.84;100017.94;2086101;28;19916;-48
2022/07/30 04:07:24;;;;;;;;;;;;;;;25.98;47.68;100019.84;2087504;28;19913;-48
2022/07/30 04:08:24;;;;;;;;;;;;;;;25.97;47.55;100021.75;2090556;28;20281;-48
2022/07/30 04:09:25;;;;;;;;;;;;;;;25.96;47.89;100017.25;2094842;28;19916;-51
2022/07/30 04:10:25;;;;;;;;;;;;;;;25.97;47.66;100019.00;2091460;28;19990;-50
2022/07/30 04:11:25;;;;;;;;;;;;;;;25.97;47.89;100021.75;2087631;28;19909;-48
2022/07/30 04:12:26;;;;;;;;;;;;;;;25.97;47.85;100019.00;2087132;28;19916;-47
2022/07/30 04:13:26;;;;;;;;;;;;;;;25.97;47.78;100023.63;2091549;28;19908;-48
2022/07/30 04:14:26;;;;;;;;;;;;;;;25.96;47.96;100028.31;2096358;28;19916;-48
2022/07/30 04:15:26;;;;;;;;;;;;;;;25.97;47.79;100021.75;2087298;28;20353;-48
2022/07/30 04:16:35;;;;;;;;;;;;;;;25.95;47.95;100021.09;2086667;28;19924;-50
2022/07/30 04:17:41;;;;;;;;;;;;;;;25.96;47.81;100020.03;2086550;28;20402;-47
2022/07/30 04:18:43;;;;;;;;;;;;;;;25.95;47.74;100023.84;2093189;28;20401;-47
2022/07/30 04:19:46;;;;;;;;;;;;;;;25.95;48.01;100023.84;2092390;28;20348;-47
2022/07/30 04:20:49;;;;;;;;;;;;;;;25.95;47.76;100025.75;2094206;28;19940;-49
2022/07/30 04:21:51;;;;;;;;;;;;;;;25.94;48.00;100027.66;2091632;28;19916;-47
2022/07/30 04:22:52;;;;;;;;;;;;;;;25.95;48.05;100032.13;2092719;28;19923;-47
2022/07/30 04:23:53;;;;;;;;;;;;;;;25.94;47.85;100027.66;2094923;28;19919;-50
2022/07/30 04:24:55;;;;;;;;;;;;;;;25.95;47.95;100031.28;2092545;28;19923;-49
2022/07/30 04:25:55;;;;;;;;;;;;;;;25.94;47.96;100041.47;2094088;28;19919;-49
2022/07/30 04:26:57;;;;;;;;;;;;;;;25.94;48.11;100035.09;2093301;28;20930;-48
2022/07/30 04:27:58;;;;;;;;;;;;;;;25.94;47.85;100030.41;2094711;28;19938;-49
2022/07/30 04:28:59;;;;;;;;;;;;;;;25.95;47.97;100034.06;2094066;28;19977;-47
2022/07/30 04:29:59;;;;;;;;;;;;;;;25.94;48.09;100038.69;2091180;28;19923;-48
2022/07/30 04:31:00;;;;;;;;;;;;;;;25.94;48.02;100035.94;2094699;28;20412;-49
2022/07/30 04:32:00;;;;;;;;;;;;;;;25.94;47.81;100033.16;2094271;28;19923;-48
2022/07/30 04:33:03;;;;;;;;;;;;;;;25.95;48.00;100042.34;2093318;28;20580;-48
2022/07/30 04:34:04;;;;;;;;;;;;;;;25.95;47.73;100037.66;2093780;28;19998;-49
2022/07/30 04:35:05;;;;;;;;;;;;;;;25.94;47.93;100030.41;2095506;28;20310;-47
2022/07/30 04:36:06;;;;;;;;;;;;;;;25.95;47.82;100036.81;2092369;28;20691;-47
2022/07/30 04:37:06;;;;;;;;;;;;;;;25.95;47.72;100042.34;2086597;28;19995;-48
2022/07/30 04:38:09;;;;;;;;;;;;;;;25.93;47.89;100037.00;2087735;28;19917;-47
2022/07/30 04:39:09;;;;;;;;;;;;;;;25.95;47.95;100043.19;2089264;28;19920;-47
2022/07/30 04:40:10;;;;;;;;;;;;;;;25.95;47.66;100047.84;2093474;28;20753;-47
2022/07/30 04:41:10;;;;;;;;;;;;;;;25.96;47.96;100038.50;2090832;28;20317;-50
2022/07/30 04:42:11;;;;;;;;;;;;;;;25.96;47.91;100039.34;2095697;28;20039;-48
2022/07/30 04:43:11;;;;;;;;;;;;;;;25.96;47.96;100038.50;2092396;28;19916;-47
2022/07/30 04:44:11;;;;;;;;;;;;;;;25.95;47.70;100043.19;2093496;28;20100;-48
2022/07/30 04:45:12;;;;;;;;;;;;;;;25.95;47.68;100050.63;2087470;28;20132;-49
2022/07/30 04:46:13;;;;;;;;;;;;;;;25.95;48.01;100048.72;2090878;28;19915;-47
2022/07/30 04:47:13;;;;;;;;;;;;;;;25.96;47.74;100044.88;2093952;28;19915;-48
2022/07/30 04:48:13;;;;;;;;;;;;;;;25.95;48.09;100050.63;2085563;28;19916;-49
2022/07/30 04:49:15;;;;;;;;;;;;;;;25.95;47.87;100048.72;2091104;28;20664;-48
2022/07/30 04:50:16;;;;;;;;;;;;;;;25.95;47.88;100042.34;2093402;28;20299;-48
2022/07/30 04:51:25;;;;;;;;;;;;;;;25.95;48.03;100048.72;2093116;28;19916;-51
2022/07/30 04:52:26;;;;;;;;;;;;;;;25.95;48.09;100050.63;2094501;28;20320;-48
2022/07/30 04:53:28;;;;;;;;;;;;;;;25.95;48.03;100051.47;2094963;28;19916;-48
2022/07/30 04:54:36;;;;;;;;;;;;;;;25.95;47.80;100050.63;2094518;28;19920;-48
2022/07/30 04:55:39;;;;;;;;;;;;;;;25.95;48.11;100058.91;2094789;28;19908;-48
2022/07/30 04:56:39;;;;;;;;;;;;;;;25.94;47.86;100058.03;2097085;28;19916;-48
2022/07/30 04:57:41;;;;;;;;;;;;;;;25.95;47.82;100058.91;2091601;28;20405;-47
2022/07/30 04:58:42;;;;;;;;;;;;;;;25.94;47.90;100060.78;2093566;28;19923;-47
2022/07/30 04:59:43;;;;;;;;;;;;;;;25.94;48.10;100062.69;2096036;28;19916;-47
2022/07/30 05:00:44;;;;;;;;;;;;;;;25.94;48.01;100063.53;2092179;28;19965;-47
2022/07/30 05:01:48;;;;;;;;;;;;;;;25.93;47.81;100063.75;2092816;28;19920;-48
2022/07/30 05:02:48;;;;;;;;;;;;;;;25.93;47.84;100059.09;2094023;28;20013;-47
2022/07/30 05:03:50;;;;;;;;;;;;;;;25.94;48.17;100068.22;2092258;28;19929;-50
2022/07/30 05:04:51;;;;;;;;;;;;;;;25.92;48.14;100065.69;2093786;28;20545;-50
2022/07/30 05:05:52;;;;;;;;;;;;;;;25.93;48.01;100066.53;2095814;28;20234;-50
2022/07/30 05:06:53;;;;;;;;;;;;;;;25.93;48.10;100069.28;2091356;28;19913;-49
2022/07/30 05:07:53;;;;;;;;;;;;;;;25.92;48.18;100068.44;2093745;28;19938;-51
2022/07/30 05:08:54;;;;;;;;;;;;;;;25.92;48.04;100071.19;2093197;28;19988;-47
2022/07/30 05:09:54;;;;;;;;;;;;;;;25.92;48.01;100076.72;2093276;28;19920;-49
2022/07/30 05:10:55;;;;;;;;;;;;;;;25.91;47.93;100080.53;2094424;28;20016;-48
2022/07/30 05:11:56;;;;;;;;;;;;;;;25.91;48.05;100080.53;2094576;28;19980;-49
2022/07/30 05:12:56;;;;;;;;;;;;;;;25.91;47.90;100075.00;2092634;28;19920;-48
2022/07/30 05:13:56;;;;;;;;;;;;;;;25.92;48.14;100071.19;2094024;28;19920;-47
2022/07/30 05:14:57;;;;;;;;;;;;;;;25.92;48.06;100082.25;2093632;28;19923;-48
2022/07/30 05:15:57;;;;;;;;;;;;;;;25.92;48.17;100075.84;2095095;28;20361;-49
2022/07/30 05:16:57;;;;;;;;;;;;;;;25.92;47.84;100076.72;2090491;28;19916;-51
2022/07/30 05:17:57;;;;;;;;;;;;;;;25.92;48.02;100076.72;2090398;28;19924;-47
2022/07/30 05:18:58;;;;;;;;;;;;;;;25.92;47.96;100079.47;2094395;28;19923;-52
2022/07/30 05:19:58;;;;;;;;;;;;;;;25.92;47.85;100071.19;2086427;28;19916;-48